sensor_id;sensor_type;location;lat;lon;timestamp;pressure;altitude;pressure_sealevel;temperature;humidity
4044;BME280;2036;51.578;7.108;2023-11-19T00:00:50;100157.84;;;16.06;100.00
4044;BME280;2036;51.578;7.108;2023-11-19T00:03:17;100149.75;;;16.08;100.00
4044;BME280;2036;51.578;7.108;2023-11-19T00:05:43;100143.44;;;16.09;100.00
4044;BME280;2036;51.578;7.108;2023-11-19T00:08:10;100145.13;;;16.18;100.00
4044;BME280;2036;51.578;7.108;2023-11-19T00:10:36;100150.25;;;16.19;100.00
4044;BME280;2036;51.578;7.108;2023-11-19T00:13:02;100151.44;;;16.25;100.00
4044;BME280;2036;51.578;7.108;2023-11-19T00:15:30;100140.50;;;16.28;100.00
4044;BME280;2036;51.578;7.108;2023-11-19T00:17:56;100138.03;;;16.34;100.00
4044;BME280;2036;51.578;7.108;2023-11-19T00:20:22;100132.25;;;16.39;100.00
4044;BME280;2036;51.578;7.108;2023-11-19T00:22:48;100137.06;;;16.52;100.00
4044;BME280;2036;51.578;7.108;2023-11-19T00:25:17;100142.69;;;16.49;100.00
4044;BME280;2036;51.578;7.108;2023-11-19T00:27:43;100131.56;;;16.45;100.00
4044;BME280;2036;51.578;7.108;2023-11-19T00:30:13;100139.34;;;16.47;100.00
4044;BME280;2036;51.578;7.108;2023-11-19T00:32:40;100132.41;;;16.54;100.00
4044;BME280;2036;51.578;7.108;2023-11-19T00:35:07;100118.00;;;16.48;100.00
4044;BME280;2036;51.578;7.108;2023-11-19T00:37:34;100118.00;;;16.48;100.00
4044;BME280;2036;51.578;7.108;2023-11-19T00:39:59;100118.00;;;16.48;100.00
4044;BME280;2036;51.578;7.108;2023-11-19T00:42:25;100111.41;;;16.52;100.00
4044;BME280;2036;51.578;7.108;2023-11-19T00:44:51;100114.56;;;16.56;100.00
4044;BME280;2036;51.578;7.108;2023-11-19T00:47:18;100109.75;;;16.59;100.00
4044;BME280;2036;51.578;7.108;2023-11-19T00:49:50;100102.13;;;16.64;100.00
4044;BME280;2036;51.578;7.108;2023-11-19T00:52:17;100104.59;;;16.66;100.00
4044;BME280;2036;51.578;7.108;2023-11-19T00:54:43;100105.94;;;16.70;100.00
4044;BME280;2036;51.578;7.108;2023-11-19T00:57:09;100091.63;;;16.87;100.00
4044;BME280;2036;51.578;7.108;2023-11-19T00:59:35;100092.59;;;16.94;100.00
4044;BME280;2036;51.578;7.108;2023-11-19T01:02:01;100092.66;;;16.86;100.00
4044;BME280;2036;51.578;7.108;2023-11-19T01:04:33;100081.03;;;16.95;100.00
4044;BME280;2036;51.578;7.108;2023-11-19T01:06:58;100084.84;;;16.92;100.00
4044;BME280;2036;51.578;7.108;2023-11-19T01:09:24;100077.53;;;16.94;100.00
4044;BME280;2036;51.578;7.108;2023-11-19T01:11:52;100080.00;;;16.96;100.00
4044;BME280;2036;51.578;7.108;2023-11-19T01:14:19;100091.44;;;16.96;100.00
4044;BME280;2036;51.578;7.108;2023-11-19T01:16:45;100091.25;;;17.06;100.00
4044;BME280;2036;51.578;7.108;2023-11-19T01:19:10;100096.56;;;17.06;100.00
4044;BME280;2036;51.578;7.108;2023-11-19T01:21:36;100088.13;;;17.02;100.00
4044;BME280;2036;51.578;7.108;2023-11-19T01:24:02;100092.75;;;17.00;100.00
4044;BME280;2036;51.578;7.108;2023-11-19T01:26:31;100094.56;;;17.08;100.00
4044;BME280;2036;51.578;7.108;2023-11-19T01:28:57;100087.75;;;17.05;100.00
4044;BME280;2036;51.578;7.108;2023-11-19T01:31:23;100081.63;;;17.13;100.00
4044;BME280;2036;51.578;7.108;2023-11-19T01:33:49;100090.53;;;17.20;100.00
4044;BME280;2036;51.578;7.108;2023-11-19T01:36:14;100084.59;;;17.10;100.00
4044;BME280;2036;51.578;7.108;2023-11-19T01:38:40;100090.53;;;17.20;100.00
4044;BME280;2036;51.578;7.108;2023-11-19T01:41:06;100094.34;;;17.18;100.00
4044;BME280;2036;51.578;7.108;2023-11-19T01:43:37;100079.91;;;17.28;100.00
4044;BME280;2036;51.578;7.108;2023-11-19T01:46:05;100077.19;;;17.36;100.00
4044;BME280;2036;51.578;7.108;2023-11-19T01:48:34;100072.47;;;17.24;100.00
4044;BME280;2036;51.578;7.108;2023-11-19T01:51:01;100064.84;;;17.29;100.00
4044;BME280;2036;51.578;7.108;2023-11-19T01:53:28;100065.94;;;17.34;100.00
4044;BME280;2036;51.578;7.108;2023-11-19T01:55:55;100063.19;;;17.50;100.00
4044;BME280;2036;51.578;7.108;2023-11-19T01:58:21;100052.81;;;17.41;100.00
4044;BME280;2036;51.578;7.108;2023-11-19T02:00:48;100056.00;;;17.36;100.00
4044;BME280;2036;51.578;7.108;2023-11-19T02:03:15;100041.19;;;17.50;100.00
4044;BME280;2036;51.578;7.108;2023-11-19T02:05:41;100046.63;;;17.56;100.00
4044;BME280;2036;51.578;7.108;2023-11-19T02:08:08;100050.88;;;17.65;100.00
4044;BME280;2036;51.578;7.108;2023-11-19T02:10:34;100053.72;;;17.64;100.00
4044;BME280;2036;51.578;7.108;2023-11-19T02:13:01;100033.06;;;17.74;100.00
4044;BME280;2036;51.578;7.108;2023-11-19T02:15:27;100029.13;;;17.70;100.00
4044;BME280;2036;51.578;7.108;2023-11-19T02:17:53;100025.72;;;17.61;100.00
4044;BME280;2036;51.578;7.108;2023-11-19T02:20:20;100020.69;;;17.66;100.00
4044;BME280;2036;51.578;7.108;2023-11-19T02:22:47;100016.63;;;17.56;100.00
4044;BME280;2036;51.578;7.108;2023-11-19T02:25:30;100023.28;;;17.74;100.00
4044;BME280;2036;51.578;7.108;2023-11-19T02:28:02;100022.88;;;17.63;100.00
4044;BME280;2036;51.578;7.108;2023-11-19T02:30:29;100034.03;;;17.81;100.00
4044;BME280;2036;51.578;7.108;2023-11-19T02:33:07;100034.41;;;17.78;100.00
4044;BME280;2036;51.578;7.108;2023-11-19T02:35:34;100016.28;;;17.82;100.00
4044;BME280;2036;51.578;7.108;2023-11-19T02:38:00;100009.03;;;17.75;100.00
4044;BME280;2036;51.578;7.108;2023-11-19T02:40:32;100010.09;;;17.89;100.00
4044;BME280;2036;51.578;7.108;2023-11-19T02:42:59;100004.66;;;17.83;100.00
4044;BME280;2036;51.578;7.108;2023-11-19T02:45:27;100004.47;;;17.84;100.00
4044;BME280;2036;51.578;7.108;2023-11-19T02:47:56;100006.63;;;17.81;100.00
4044;BME280;2036;51.578;7.108;2023-11-19T02:50:22;100018.41;;;17.63;100.00
4044;BME280;2036;51.578;7.108;2023-11-19T02:52:54;100024.00;;;17.68;100.00
4044;BME280;2036;51.578;7.108;2023-11-19T02:55:23;100005.75;;;17.88;100.00
4044;BME280;2036;51.578;7.108;2023-11-19T02:57:50;100007.47;;;17.81;100.00
4044;BME280;2036;51.578;7.108;2023-11-19T03:00:20;100004.28;;;17.86;100.00
4044;BME280;2036;51.578;7.108;2023-11-19T03:02:53;100003.59;;;17.92;100.00
4044;BME280;2036;51.578;7.108;2023-11-19T03:05:27;100004.47;;;17.84;100.00
4044;BME280;2036;51.578;7.108;2023-11-19T03:07:55;100005.06;;;17.94;100.00
4044;BME280;2036;51.578;7.108;2023-11-19T03:10:22;99997.75;;;17.96;100.00
4044;BME280;2036;51.578;7.108;2023-11-19T03:12:48;99989.28;;;17.93;100.00
4044;BME280;2036;51.578;7.108;2023-11-19T03:15:14;99993.44;;;17.72;100.00
4044;BME280;2036;51.578;7.108;2023-11-19T03:17:42;99995.56;;;17.77;100.00
4044;BME280;2036;51.578;7.108;2023-11-19T03:20:11;99985.88;;;17.84;100.00
4044;BME280;2036;51.578;7.108;2023-11-19T03:22:44;99980.16;;;17.95;100.00
4044;BME280;2036;51.578;7.108;2023-11-19T03:25:11;99985.88;;;17.84;100.00
4044;BME280;2036;51.578;7.108;2023-11-19T03:27:39;99984.06;;;17.85;100.00
4044;BME280;2036;51.578;7.108;2023-11-19T03:30:09;99987.13;;;17.96;100.00
4044;BME280;2036;51.578;7.108;2023-11-19T03:32:38;99994.97;;;17.90;100.00
4044;BME280;2036;51.578;7.108;2023-11-19T03:35:06;100008.25;;;17.90;100.00
4044;BME280;2036;51.578;7.108;2023-11-19T03:37:38;100000.81;;;17.85;100.00
4044;BME280;2036;51.578;7.108;2023-11-19T03:40:07;100001.75;;;17.69;100.00
4044;BME280;2036;51.578;7.108;2023-11-19T03:42:33;99995.50;;;17.62;100.00
4044;BME280;2036;51.578;7.108;2023-11-19T03:45:00;99990.38;;;17.84;100.00
4044;BME280;2036;51.578;7.108;2023-11-19T03:47:27;99991.84;;;17.86;100.00
4044;BME280;2036;51.578;7.108;2023-11-19T03:49:54;100002.63;;;17.62;100.00
4044;BME280;2036;51.578;7.108;2023-11-19T03:52:22;99995.09;;;17.73;100.00
4044;BME280;2036;51.578;7.108;2023-11-19T03:54:49;100019.28;;;17.78;100.00
4044;BME280;2036;51.578;7.108;2023-11-19T03:57:16;100020.28;;;17.77;100.00
4044;BME280;2036;51.578;7.108;2023-11-19T03:59:42;100013.16;;;17.78;100.00
4044;BME280;2036;51.578;7.108;2023-11-19T04:02:10;100005.81;;;17.57;100.00
4044;BME280;2036;51.578;7.108;2023-11-19T04:04:36;100015.66;;;17.71;100.00
4044;BME280;2036;51.578;7.108;2023-11-19T04:07:03;100004.72;;;17.74;100.00
4044;BME280;2036;51.578;7.108;2023-11-19T04:09:29;100025.09;;;17.51;100.00
4044;BME280;2036;51.578;7.108;2023-11-19T04:11:56;100017.16;;;17.51;100.00
4044;BME280;2036;51.578;7.108;2023-11-19T04:14:24;100016.91;;;17.61;100.00
4044;BME280;2036;51.578;7.108;2023-11-19T04:16:49;100011.31;;;17.48;100.00
4044;BME280;2036;51.578;7.108;2023-11-19T04:19:18;99997.22;;;17.55;100.00
4044;BME280;2036;51.578;7.108;2023-11-19T04:21:45;100009.59;;;17.63;100.00
4044;BME280;2036;51.578;7.108;2023-11-19T04:24:13;100012.16;;;17.48;100.00
4044;BME280;2036;51.578;7.108;2023-11-19T04:26:44;100011.66;;;17.53;100.00
4044;BME280;2036;51.578;7.108;2023-11-19T04:29:16;100029.22;;;17.23;100.00
4044;BME280;2036;51.578;7.108;2023-11-19T04:31:44;100032.41;;;17.41;100.00
4044;BME280;2036;51.578;7.108;2023-11-19T04:34:12;100034.75;;;17.36;100.00
4044;BME280;2036;51.578;7.108;2023-11-19T04:36:38;100032.75;;;17.38;100.00
4044;BME280;2036;51.578;7.108;2023-11-19T04:39:05;100028.88;;;17.26;100.00
4044;BME280;2036;51.578;7.108;2023-11-19T04:41:36;100031.22;;;17.21;100.00
4044;BME280;2036;51.578;7.108;2023-11-19T04:44:04;100038.53;;;17.19;100.00
4044;BME280;2036;51.578;7.108;2023-11-19T04:46:31;100033.72;;;17.15;100.00
4044;BME280;2036;51.578;7.108;2023-11-19T04:48:58;100022.81;;;17.09;100.00
4044;BME280;2036;51.578;7.108;2023-11-19T04:51:25;100037.06;;;17.08;100.00
4044;BME280;2036;51.578;7.108;2023-11-19T04:53:51;100031.28;;;17.05;100.00
4044;BME280;2036;51.578;7.108;2023-11-19T04:56:19;100025.19;;;16.96;100.00
4044;BME280;2036;51.578;7.108;2023-11-19T04:58:50;100034.28;;;16.94;100.00
4044;BME280;2036;51.578;7.108;2023-11-19T05:01:17;100041.25;;;16.95;100.00
4044;BME280;2036;51.578;7.108;2023-11-19T05:03:43;100046.56;;;16.95;100.00
4044;BME280;2036;51.578;7.108;2023-11-19T05:06:10;100043.78;;;16.88;100.00
4044;BME280;2036;51.578;7.108;2023-11-19T05:08:38;100042.44;;;16.84;100.00
4044;BME280;2036;51.578;7.108;2023-11-19T05:11:04;100047.72;;;16.92;100.00
4044;BME280;2036;51.578;7.108;2023-11-19T05:13:33;100038.63;;;16.87;100.00
4044;BME280;2036;51.578;7.108;2023-11-19T05:16:00;100045.59;;;16.80;100.00
4044;BME280;2036;51.578;7.108;2023-11-19T05:18:27;100051.03;;;16.86;100.00
4044;BME280;2036;51.578;7.108;2023-11-19T05:20:54;100049.38;;;16.93;100.00
4044;BME280;2036;51.578;7.108;2023-11-19T05:23:20;100044.47;;;16.74;100.00
4044;BME280;2036;51.578;7.108;2023-11-19T05:25:47;100047.28;;;16.81;100.00
4044;BME280;2036;51.578;7.108;2023-11-19T05:28:13;100042.16;;;16.71;100.00
4044;BME280;2036;51.578;7.108;2023-11-19T05:30:40;100048.97;;;16.66;100.00
4044;BME280;2036;51.578;7.108;2023-11-19T05:33:08;100040.69;;;16.61;100.00
4044;BME280;2036;51.578;7.108;2023-11-19T05:35:35;100039.72;;;16.54;100.00
4044;BME280;2036;51.578;7.108;2023-11-19T05:38:02;100037.03;;;16.70;100.00
4044;BME280;2036;51.578;7.108;2023-11-19T05:40:28;100031.38;;;16.73;100.00
4044;BME280;2036;51.578;7.108;2023-11-19T05:42:54;100031.38;;;16.73;100.00
4044;BME280;2036;51.578;7.108;2023-11-19T05:45:22;100033.91;;;16.58;100.00
4044;BME280;2036;51.578;7.108;2023-11-19T05:47:48;100042.03;;;16.65;100.00
4044;BME280;2036;51.578;7.108;2023-11-19T05:50:15;100024.59;;;16.78;100.00
4044;BME280;2036;51.578;7.108;2023-11-19T05:52:42;100034.34;;;16.78;100.00
4044;BME280;2036;51.578;7.108;2023-11-19T05:55:10;100031.44;;;16.40;100.00
4044;BME280;2036;51.578;7.108;2023-11-19T05:57:39;100042.34;;;16.54;100.00
4044;BME280;2036;51.578;7.108;2023-11-19T06:00:09;100048.66;;;16.53;100.00
4044;BME280;2036;51.578;7.108;2023-11-19T06:02:39;100044.16;;;16.45;100.00
4044;BME280;2036;51.578;7.108;2023-11-19T06:05:08;100033.91;;;16.58;100.00
4044;BME280;2036;51.578;7.108;2023-11-19T06:07:35;100033.91;;;16.42;100.00
4044;BME280;2036;51.578;7.108;2023-11-19T06:10:02;100037.56;;;16.57;100.00
4044;BME280;2036;51.578;7.108;2023-11-19T06:12:31;100028.97;;;16.55;100.00
4044;BME280;2036;51.578;7.108;2023-11-19T06:14:58;100029.44;;;16.67;100.00
4044;BME280;2036;51.578;7.108;2023-11-19T06:17:25;100044.69;;;16.57;100.00
4044;BME280;2036;51.578;7.108;2023-11-19T06:19:53;100045.84;;;16.54;100.00
4044;BME280;2036;51.578;7.108;2023-11-19T06:22:19;100056.09;;;16.57;100.00
4044;BME280;2036;51.578;7.108;2023-11-19T06:24:46;100056.63;;;16.53;100.00
4044;BME280;2036;51.578;7.108;2023-11-19T06:27:14;100062.19;;;16.50;100.00
4044;BME280;2036;51.578;7.108;2023-11-19T06:29:42;100051.47;;;16.59;100.00
4044;BME280;2036;51.578;7.108;2023-11-19T06:32:09;100065.88;;;16.49;100.00
4044;BME280;2036;51.578;7.108;2023-11-19T06:34:40;100047.66;;;16.37;100.00
4044;BME280;2036;51.578;7.108;2023-11-19T06:37:10;100055.44;;;16.39;100.00
4044;BME280;2036;51.578;7.108;2023-11-19T06:39:37;100053.28;;;16.42;100.00
4044;BME280;2036;51.578;7.108;2023-11-19T06:42:06;100056.28;;;16.31;100.00
4044;BME280;2036;51.578;7.108;2023-11-19T06:44:34;100062.38;;;16.48;100.00
4044;BME280;2036;51.578;7.108;2023-11-19T06:47:00;100061.72;;;16.46;100.00
4044;BME280;2036;51.578;7.108;2023-11-19T06:49:26;100064.19;;;16.48;100.00
4044;BME280;2036;51.578;7.108;2023-11-19T06:51:53;100071.47;;;16.37;100.00
4044;BME280;2036;51.578;7.108;2023-11-19T06:54:19;100088.22;;;16.22;100.00
4044;BME280;2036;51.578;7.108;2023-11-19T06:56:46;100084.75;;;16.29;100.00
4044;BME280;2036;51.578;7.108;2023-11-19T06:59:11;100090.22;;;16.52;100.00
4044;BME280;2036;51.578;7.108;2023-11-19T07:01:37;100081.56;;;16.50;100.00
4044;BME280;2036;51.578;7.108;2023-11-19T07:04:04;100092.69;;;16.46;100.00
4044;BME280;2036;51.578;7.108;2023-11-19T07:06:35;100094.66;;;16.43;100.00
4044;BME280;2036;51.578;7.108;2023-11-19T07:09:02;100095.34;;;16.54;100.00
4044;BME280;2036;51.578;7.108;2023-11-19T07:11:39;100073.63;;;16.50;100.00
4044;BME280;2036;51.578;7.108;2023-11-19T07:14:06;100088.69;;;16.50;100.00
4044;BME280;2036;51.578;7.108;2023-11-19T07:16:34;100090.38;;;16.67;100.00
4044;BME280;2036;51.578;7.108;2023-11-19T07:19:05;100090.22;;;16.60;100.00
4044;BME280;2036;51.578;7.108;2023-11-19T07:21:32;100094.16;;;16.56;100.00
4044;BME280;2036;51.578;7.108;2023-11-19T07:23:59;100103.59;;;16.51;100.00
4044;BME280;2036;51.578;7.108;2023-11-19T07:26:25;100107.94;;;16.60;100.00
4044;BME280;2036;51.578;7.108;2023-11-19T07:28:51;100116.34;;;16.63;100.00
4044;BME280;2036;51.578;7.108;2023-11-19T07:31:17;100113.53;;;16.57;100.00
4044;BME280;2036;51.578;7.108;2023-11-19T07:33:45;100123.63;;;16.45;100.00
4044;BME280;2036;51.578;7.108;2023-11-19T07:36:12;100128.75;;;16.47;100.00
4044;BME280;2036;51.578;7.108;2023-11-19T07:38:38;100120.31;;;16.35;100.00
4044;BME280;2036;51.578;7.108;2023-11-19T07:41:05;100127.75;;;16.48;100.00
4044;BME280;2036;51.578;7.108;2023-11-19T07:43:31;100131.09;;;16.41;100.00
4044;BME280;2036;51.578;7.108;2023-11-19T07:45:57;100122.78;;;16.44;100.00
4044;BME280;2036;51.578;7.108;2023-11-19T07:48:25;100119.16;;;16.46;100.00
4044;BME280;2036;51.578;7.108;2023-11-19T07:50:52;100130.09;;;16.42;100.00
4044;BME280;2036;51.578;7.108;2023-11-19T07:53:19;100128.75;;;16.38;100.00
4044;BME280;2036;51.578;7.108;2023-11-19T07:55:46;100132.88;;;16.33;100.00
4044;BME280;2036;51.578;7.108;2023-11-19T07:58:12;100125.31;;;16.54;100.00
4044;BME280;2036;51.578;7.108;2023-11-19T08:00:40;100131.09;;;16.66;100.00
4044;BME280;2036;51.578;7.108;2023-11-19T08:03:09;100124.56;;;17.00;100.00
4044;BME280;2036;51.578;7.108;2023-11-19T08:05:36;100128.72;;;16.95;100.00
4044;BME280;2036;51.578;7.108;2023-11-19T08:08:02;100141.81;;;17.04;100.00
4044;BME280;2036;51.578;7.108;2023-11-19T08:10:28;100132.06;;;16.81;100.00
4044;BME280;2036;51.578;7.108;2023-11-19T08:12:55;100151.94;;;16.85;100.00
4044;BME280;2036;51.578;7.108;2023-11-19T08:15:21;100153.75;;;16.92;100.00
4044;BME280;2036;51.578;7.108;2023-11-19T08:17:48;100150.63;;;16.81;100.00
4044;BME280;2036;51.578;7.108;2023-11-19T08:20:14;100161.19;;;16.89;100.00
4044;BME280;2036;51.578;7.108;2023-11-19T08:22:40;100158.91;;;16.86;100.00
4044;BME280;2036;51.578;7.108;2023-11-19T08:25:09;100163.00;;;16.96;100.00
4044;BME280;2036;51.578;7.108;2023-11-19T08:27:36;100164.34;;;16.92;100.00
4044;BME280;2036;51.578;7.108;2023-11-19T08:30:03;100172.44;;;16.99;100.00
4044;BME280;2036;51.578;7.108;2023-11-19T08:32:29;100161.88;;;16.91;100.00
4044;BME280;2036;51.578;7.108;2023-11-19T08:34:55;100165.84;;;16.87;100.00
4044;BME280;2036;51.578;7.108;2023-11-19T08:37:22;100168.97;;;16.98;100.00
4044;BME280;2036;51.578;7.108;2023-11-19T08:39:50;100160.00;;;17.07;100.00
4044;BME280;2036;51.578;7.108;2023-11-19T08:42:18;100167.66;;;16.94;100.00
4044;BME280;2036;51.578;7.108;2023-11-19T08:44:49;100155.56;;;17.00;100.00
4044;BME280;2036;51.578;7.108;2023-11-19T08:47:20;100162.06;;;16.73;100.00
4044;BME280;2036;51.578;7.108;2023-11-19T08:49:50;100154.06;;;16.89;100.00
4044;BME280;2036;51.578;7.108;2023-11-19T08:52:18;100160.75;;;16.69;100.00
4044;BME280;2036;51.578;7.108;2023-11-19T08:54:46;100156.72;;;16.89;100.00
4044;BME280;2036;51.578;7.108;2023-11-19T08:57:12;100162.19;;;17.04;100.00
4044;BME280;2036;51.578;7.108;2023-11-19T08:59:38;100166.41;;;17.37;100.00
4044;BME280;2036;51.578;7.108;2023-11-19T09:02:06;100167.25;;;17.38;100.00
4044;BME280;2036;51.578;7.108;2023-11-19T09:04:33;100165.19;;;17.56;100.00
4044;BME280;2036;51.578;7.108;2023-11-19T09:07:00;100166.34;;;17.61;100.00
4044;BME280;2036;51.578;7.108;2023-11-19T09:09:27;100168.06;;;17.85;100.00
4044;BME280;2036;51.578;7.108;2023-11-19T09:11:56;100168.84;;;17.94;100.00
4044;BME280;2036;51.578;7.108;2023-11-19T09:14:22;100163.41;;;17.87;100.00
4044;BME280;2036;51.578;7.108;2023-11-19T09:16:52;100177.19;;;17.83;100.00
4044;BME280;2036;51.578;7.108;2023-11-19T09:19:19;100156.94;;;17.82;100.00
4044;BME280;2036;51.578;7.108;2023-11-19T09:21:47;100165.47;;;17.69;100.00
4044;BME280;2036;51.578;7.108;2023-11-19T09:24:15;100174.31;;;17.45;100.00
4044;BME280;2036;51.578;7.108;2023-11-19T09:26:43;100166.78;;;17.26;100.00
4044;BME280;2036;51.578;7.108;2023-11-19T09:29:11;100148.47;;;17.47;100.00
4044;BME280;2036;51.578;7.108;2023-11-19T09:31:41;100161.19;;;17.05;100.00
4044;BME280;2036;51.578;7.108;2023-11-19T09:34:08;100164.28;;;17.25;100.00
4044;BME280;2036;51.578;7.108;2023-11-19T09:36:35;100165.00;;;16.86;100.00
4044;BME280;2036;51.578;7.108;2023-11-19T09:39:03;100166.00;;;17.01;100.00
4044;BME280;2036;51.578;7.108;2023-11-19T09:41:34;100170.47;;;17.09;100.00
4044;BME280;2036;51.578;7.108;2023-11-19T09:44:00;100160.19;;;17.14;100.00
4044;BME280;2036;51.578;7.108;2023-11-19T09:46:27;100162.03;;;16.97;100.00
4044;BME280;2036;51.578;7.108;2023-11-19T09:49:00;100154.56;;;17.09;100.00
4044;BME280;2036;51.578;7.108;2023-11-19T09:51:31;100160.03;;;16.99;100.00
4044;BME280;2036;51.578;7.108;2023-11-19T09:53:57;100162.81;;;17.14;100.00
4044;BME280;2036;51.578;7.108;2023-11-19T09:56:23;100164.81;;;17.12;100.00
4044;BME280;2036;51.578;7.108;2023-11-19T09:58:51;100171.81;;;17.05;100.00
4044;BME280;2036;51.578;7.108;2023-11-19T10:01:18;100171.50;;;16.76;100.00
4044;BME280;2036;51.578;7.108;2023-11-19T10:03:48;100179.75;;;16.97;100.00
4044;BME280;2036;51.578;7.108;2023-11-19T10:06:17;100181.91;;;16.93;100.00
4044;BME280;2036;51.578;7.108;2023-11-19T10:08:45;100161.88;;;16.83;100.00
4044;BME280;2036;51.578;7.108;2023-11-19T10:11:12;100167.19;;;16.75;100.00
4044;BME280;2036;51.578;7.108;2023-11-19T10:13:40;100160.72;;;16.77;100.00
4044;BME280;2036;51.578;7.108;2023-11-19T10:16:15;100143.00;;;16.78;100.00
4044;BME280;2036;51.578;7.108;2023-11-19T10:18:50;100148.94;;;16.96;100.00
4044;BME280;2036;51.578;7.108;2023-11-19T10:21:21;100146.31;;;16.80;100.00
4044;BME280;2036;51.578;7.108;2023-11-19T10:23:58;100154.25;;;16.80;100.00
4044;BME280;2036;51.578;7.108;2023-11-19T10:26:28;100137.03;;;16.84;100.00
4044;BME280;2036;51.578;7.108;2023-11-19T10:28:58;100150.47;;;16.66;100.00
4044;BME280;2036;51.578;7.108;2023-11-19T10:32:07;100146.13;;;16.89;100.00
4044;BME280;2036;51.578;7.108;2023-11-19T10:38:16;100140.13;;;17.03;100.00
4044;BME280;2036;51.578;7.108;2023-11-19T10:40:42;100142.31;;;17.00;100.00
4044;BME280;2036;51.578;7.108;2023-11-19T10:43:10;100152.38;;;17.21;100.00
4044;BME280;2036;51.578;7.108;2023-11-19T10:45:38;100141.31;;;17.01;100.00
4044;BME280;2036;51.578;7.108;2023-11-19T10:48:07;100147.09;;;17.04;100.00
4044;BME280;2036;51.578;7.108;2023-11-19T10:50:40;100154.03;;;17.22;100.00
4044;BME280;2036;51.578;7.108;2023-11-19T10:53:10;100135.47;;;17.14;100.00
4044;BME280;2036;51.578;7.108;2023-11-19T10:55:43;100144.88;;;17.24;100.00
4044;BME280;2036;51.578;7.108;2023-11-19T10:58:17;100145.91;;;17.15;100.00
4044;BME280;2036;51.578;7.108;2023-11-19T11:00:57;100137.53;;;16.87;100.00
4044;BME280;2036;51.578;7.108;2023-11-19T11:03:38;100142.47;;;17.06;100.00
4044;BME280;2036;51.578;7.108;2023-11-19T11:06:07;100142.22;;;17.32;100.00
4044;BME280;2036;51.578;7.108;2023-11-19T11:08:37;100147.84;;;17.29;100.00
4044;BME280;2036;51.578;7.108;2023-11-19T11:11:08;100140.06;;;17.36;100.00
4044;BME280;2036;51.578;7.108;2023-11-19T11:13:39;100124.28;;;17.42;100.00
4044;BME280;2036;51.578;7.108;2023-11-19T11:16:10;100138.56;;;17.33;100.00
4044;BME280;2036;51.578;7.108;2023-11-19T11:18:37;100134.28;;;17.24;100.00
4044;BME280;2036;51.578;7.108;2023-11-19T11:21:12;100134.28;;;17.24;100.00
4044;BME280;2036;51.578;7.108;2023-11-19T11:24:44;100139.78;;;17.15;100.00
4044;BME280;2036;51.578;7.108;2023-11-19T11:27:58;100137.09;;;17.23;100.00
4044;BME280;2036;51.578;7.108;2023-11-19T11:33:36;100132.84;;;17.05;100.00
4044;BME280;2036;51.578;7.108;2023-11-19T11:36:21;100145.38;;;17.20;100.00
4044;BME280;2036;51.578;7.108;2023-11-19T11:38:49;100144.78;;;17.09;100.00
4044;BME280;2036;51.578;7.108;2023-11-19T11:41:25;100134.59;;;17.29;100.00
4044;BME280;2036;51.578;7.108;2023-11-19T11:43:54;100134.97;;;17.10;100.00
4044;BME280;2036;51.578;7.108;2023-11-19T11:49:07;100108.22;;;17.36;100.00
4044;BME280;2036;51.578;7.108;2023-11-19T11:59:50;100087.09;;;17.58;100.00
4044;BME280;2036;51.578;7.108;2023-11-19T12:02:20;100105.59;;;17.28;100.00
4044;BME280;2036;51.578;7.108;2023-11-19T12:04:52;100073.44;;;17.31;100.00
4044;BME280;2036;51.578;7.108;2023-11-19T12:07:24;100100.16;;;17.91;100.00
4044;BME280;2036;51.578;7.108;2023-11-19T12:09:54;100097.16;;;18.39;100.00
4044;BME280;2036;51.578;7.108;2023-11-19T12:12:33;100092.19;;;18.73;100.00
4044;BME280;2036;51.578;7.108;2023-11-19T12:15:06;100121.91;;;18.91;100.00
4044;BME280;2036;51.578;7.108;2023-11-19T12:20:00;100097.16;;;18.39;100.00
4044;BME280;2036;51.578;7.108;2023-11-19T12:22:28;100095.97;;;18.19;100.00
4044;BME280;2036;51.578;7.108;2023-11-19T12:24:55;100075.09;;;18.16;100.00
4044;BME280;2036;51.578;7.108;2023-11-19T12:27:23;100073.38;;;18.00;100.00
4044;BME280;2036;51.578;7.108;2023-11-19T12:29:50;100081.16;;;18.24;100.00
4044;BME280;2036;51.578;7.108;2023-11-19T12:32:16;100076.09;;;18.15;100.00
4044;BME280;2036;51.578;7.108;2023-11-19T12:34:42;100070.00;;;18.29;100.00
4044;BME280;2036;51.578;7.108;2023-11-19T12:37:09;100069.09;;;18.36;100.00
4044;BME280;2036;51.578;7.108;2023-11-19T12:39:36;100063.25;;;18.18;100.00
4044;BME280;2036;51.578;7.108;2023-11-19T12:42:03;100061.28;;;18.35;100.00
4044;BME280;2036;51.578;7.108;2023-11-19T12:44:29;100073.28;;;18.31;100.00
4044;BME280;2036;51.578;7.108;2023-11-19T12:49:32;100069.09;;;18.14;100.00
4044;BME280;2036;51.578;7.108;2023-11-19T12:52:11;100070.47;;;18.10;100.00
4044;BME280;2036;51.578;7.108;2023-11-19T12:54:39;100078.16;;;18.05;100.00
4044;BME280;2036;51.578;7.108;2023-11-19T12:57:05;100078.88;;;17.99;100.00
4044;BME280;2036;51.578;7.108;2023-11-19T12:59:32;100059.16;;;17.93;100.00
4044;BME280;2036;51.578;7.108;2023-11-19T13:01:58;100061.88;;;17.85;100.00
4044;BME280;2036;51.578;7.108;2023-11-19T13:04:30;100091.09;;;17.54;100.00
4044;BME280;2036;51.578;7.108;2023-11-19T13:06:59;100086.06;;;17.59;100.00
4044;BME280;2036;51.578;7.108;2023-11-19T13:09:27;100080.19;;;17.72;100.00
4044;BME280;2036;51.578;7.108;2023-11-19T13:11:56;100084.75;;;17.63;100.00
4044;BME280;2036;51.578;7.108;2023-11-19T13:14:23;100086.88;;;17.68;100.00
4044;BME280;2036;51.578;7.108;2023-11-19T13:16:49;100080.16;;;18.03;100.00
4044;BME280;2036;51.578;7.108;2023-11-19T13:19:17;100070.72;;;18.37;100.00
4044;BME280;2036;51.578;7.108;2023-11-19T13:21:46;100067.91;;;18.39;100.00
4044;BME280;2036;51.578;7.108;2023-11-19T13:24:14;100078.59;;;18.54;100.00
4044;BME280;2036;51.578;7.108;2023-11-19T13:26:41;100077.72;;;18.38;100.00
4044;BME280;2036;51.578;7.108;2023-11-19T13:29:09;100075.16;;;18.08;100.00